Airfield :
LOGIN :

Register | Disclaimer

   EN    FR    IT 

 










Legend :    VFR   Marginal VFR   IFR   Intensive IFR   Very Intensive IFR
Visi :
Ceiling :
>= 8 km
>= 3000ft
5 to 8 km
1000 to 3000 ft
1500m to 5 km
500 to 1000 ft
800 to 1500m
200 to 500 ft
< 800m
< 200 ft
Symbols :   Thunderstorms  Fog  Heavy snow  Heavy precipitations  Wind > 20 kt
SIGMETs :     Misc.  Thunderstorms  Icing  Turbulence  Mountain Waves  Volcanic Ashes







- Airport Elevation : 410 ft
- IATA code : AVB


LIPA - Aviano AB Pordenone

CURRENT METAR :
  • 171355Z 04018KT 9999 SCT090 07/M10 Q1018 RMK BKN VIS MIN 9999 WIND THR05 05020KT WIND THR23 05022KT A3009 BLU

EXPIRED METARs :
  • 171255Z 04019KT 9999 SCT090 08/M09 Q1018 RMK BKN VIS MIN 9999 WIND THR05 06024KT WIND THR23 05022KT A3007 BLU
  • 171155Z 04021G34KT 9999 FEW100 08/M09 Q1018 RMK BKN SCT140 VIS MIN 9999 WIND THR05 06025KT WIND THR23 05021G33KT A3007 BLU

TAF TAF LIPA
Valid from the 17 at 15:00 until the 18 at 00:00 UTC


171400Z 1715/1724 05016KT 9999 SCT090
TEMPO 1715/1721 05020G30KT
No reported NOTAMs for that airfield.
1 SIGMET reported for the Milano FIR (LIMM) :
 
Severe icing
LIMM SIGMET 4 VALID 171120/171520 LIMM- LIMM MILANO FIR SEV ICE FCST WI N4451 E01308 - N4407 E01031 - N4342 E01102 - N4328 E01430 - N4431 E01317 - N4451 E01308 BLW FL100 STNR NC=



MET'MAP, your aeronautical weather chart ! - Copyright ORBIFLY December 2007 - Disclaimer

ORBIFLY MET'MAP TEAM :

Programming & Development : Alexandra Zaïnal
Concept & Development : Baudouin d'Aumeries
Co-Development & Prog : Marc-Olivier Méhu
Technical & hardware support : Manuel Goepfert

Contact : metmap@orbifly.com




SOURCES & CREDITS :

   NOAA